createdAt,value
2022-10-06T00:01:04.126Z,3.00
2022-10-06T00:03:32.195Z,3.17
2022-10-06T00:06:01.468Z,3.60
2022-10-06T00:08:29.757Z,3.43
2022-10-06T00:10:58.540Z,3.80
2022-10-06T00:13:28.433Z,3.70
2022-10-06T00:15:56.454Z,4.10
2022-10-06T00:18:24.607Z,3.97
2022-10-06T00:20:56.821Z,3.33
2022-10-06T00:23:24.968Z,2.77
2022-10-06T00:25:53.107Z,3.63
2022-10-06T00:28:21.630Z,3.00
2022-10-06T00:30:53.532Z,3.13
2022-10-06T00:33:21.771Z,3.23
2022-10-06T00:35:56.836Z,3.80
2022-10-06T00:38:26.054Z,3.10
2022-10-06T00:40:54.144Z,3.63
2022-10-06T00:43:53.092Z,2.97
2022-10-06T00:46:31.998Z,3.40
2022-10-06T00:49:06.069Z,2.70
2022-10-06T00:51:35.194Z,2.80
2022-10-06T00:54:03.830Z,3.00
2022-10-06T00:56:32.774Z,3.33
2022-10-06T00:59:01.177Z,3.33
2022-10-06T01:01:32.498Z,3.50
2022-10-06T01:04:06.069Z,2.93
2022-10-06T01:06:45.197Z,3.23
2022-10-06T01:09:14.328Z,2.80
2022-10-06T01:11:42.724Z,3.20
2022-10-06T01:14:11.196Z,3.00
2022-10-06T01:16:44.656Z,2.83
2022-10-06T01:19:22.779Z,3.30
2022-10-06T01:21:52.161Z,2.90
2022-10-06T01:24:21.698Z,3.20
2022-10-06T01:26:52.743Z,3.00
2022-10-06T01:29:21.522Z,2.73
2022-10-06T01:31:49.972Z,2.60
2022-10-06T01:34:17.918Z,2.93
2022-10-06T01:36:46.578Z,2.80
2022-10-06T01:39:14.995Z,2.93
2022-10-06T01:41:47.672Z,3.07
2022-10-06T01:44:16.213Z,2.90
2022-10-06T01:46:44.179Z,2.80
2022-10-06T01:49:12.223Z,3.03
2022-10-06T01:52:02.535Z,2.63
2022-10-06T01:54:40.658Z,2.90
2022-10-06T01:57:14.036Z,2.70
2022-10-06T01:59:58.205Z,2.40
2022-10-06T02:02:40.474Z,2.80
2022-10-06T02:05:24.361Z,3.17
2022-10-06T02:08:16.399Z,2.87
2022-10-06T02:10:51.330Z,3.00
2022-10-06T02:13:36.372Z,3.07
2022-10-06T02:16:17.053Z,2.63
2022-10-06T02:18:53.212Z,2.50
2022-10-06T02:21:31.796Z,3.73
2022-10-06T02:24:15.767Z,3.00
2022-10-06T02:27:01.812Z,2.80
2022-10-06T02:29:46.910Z,3.40
2022-10-06T02:32:56.824Z,3.30
2022-10-06T02:35:39.958Z,3.30
2022-10-06T02:38:19.524Z,3.00
2022-10-06T02:40:50.218Z,2.50
2022-10-06T02:43:23.575Z,2.60
2022-10-06T02:46:22.599Z,2.73
2022-10-06T02:55:22.254Z,4.47
2022-10-06T02:58:10.184Z,3.83
2022-10-06T03:00:47.290Z,3.17
2022-10-06T03:03:52.875Z,2.90
2022-10-06T03:06:43.729Z,3.47
2022-10-06T03:09:37.968Z,3.20
2022-10-06T03:12:06.910Z,3.53
2022-10-06T03:15:10.845Z,3.20
2022-10-06T03:18:06.864Z,2.80
2022-10-06T03:20:57.627Z,3.10
2022-10-06T03:23:54.689Z,2.90
2022-10-06T03:26:38.672Z,3.03
2022-10-06T03:29:32.133Z,2.97
2022-10-06T03:32:22.041Z,3.40
2022-10-06T03:35:10.752Z,3.90
2022-10-06T03:38:05.861Z,3.30
2022-10-06T03:41:36.549Z,3.70
2022-10-06T03:44:20.799Z,4.13
2022-10-06T03:47:16.065Z,3.70
2022-10-06T03:49:52.359Z,4.07
2022-10-06T03:53:22.363Z,3.20
2022-10-06T03:56:51.220Z,4.00
2022-10-06T03:59:44.039Z,4.63
2022-10-06T04:02:34.032Z,6.10
2022-10-06T04:05:16.042Z,5.60
2022-10-06T04:08:07.509Z,7.77
2022-10-06T04:14:41.061Z,4.47
2022-10-06T04:24:31.364Z,4.60
2022-10-06T04:27:35.855Z,4.07
2022-10-06T04:34:46.760Z,3.60
2022-10-06T04:37:52.487Z,3.97
2022-10-06T04:41:10.809Z,4.13
2022-10-06T04:43:52.697Z,5.60
2022-10-06T04:46:49.442Z,5.53
2022-10-06T04:49:31.390Z,5.43
2022-10-06T04:51:59.535Z,5.30
2022-10-06T04:54:33.686Z,5.80
2022-10-06T04:57:02.864Z,5.23
2022-10-06T04:59:49.557Z,4.80
2022-10-06T05:02:20.779Z,4.27
2022-10-06T05:04:53.321Z,5.43
2022-10-06T05:07:24.257Z,5.60
2022-10-06T05:09:52.303Z,6.70
2022-10-06T05:12:20.447Z,6.63
2022-10-06T05:14:48.353Z,5.90
2022-10-06T05:17:16.956Z,5.57
2022-10-06T05:19:46.946Z,5.53
2022-10-06T05:22:15.034Z,5.10
2022-10-06T05:24:43.110Z,4.20
2022-10-06T05:27:11.140Z,4.53
2022-10-06T05:29:39.586Z,4.07
2022-10-06T05:32:10.124Z,4.13
2022-10-06T05:34:39.028Z,4.00
2022-10-06T05:37:09.495Z,4.53
2022-10-06T05:39:37.644Z,3.93
2022-10-06T05:42:06.454Z,4.17
2022-10-06T05:44:34.899Z,4.50
2022-10-06T05:47:07.924Z,3.97
2022-10-06T05:49:36.688Z,4.17
2022-10-06T05:52:06.079Z,4.40
2022-10-06T05:54:38.352Z,3.87
2022-10-06T05:57:08.003Z,3.80
2022-10-06T05:59:36.496Z,4.17
2022-10-06T06:02:05.912Z,4.70
2022-10-06T06:04:53.917Z,4.73
2022-10-06T06:07:21.951Z,4.40
2022-10-06T06:09:51.494Z,4.80
2022-10-06T06:12:20.208Z,5.10
2022-10-06T06:15:11.577Z,4.57
2022-10-06T06:17:48.049Z,4.50
2022-10-06T06:20:16.072Z,5.80
2022-10-06T06:22:44.842Z,6.70
2022-10-06T06:25:14.478Z,6.43
2022-10-06T06:27:50.742Z,6.23
2022-10-06T06:30:19.040Z,6.53
2022-10-06T06:32:47.231Z,5.73
2022-10-06T06:35:15.260Z,6.37
2022-10-06T06:37:45.081Z,5.40
2022-10-06T06:40:14.679Z,5.67
2022-10-06T06:42:42.737Z,5.50
2022-10-06T06:45:22.673Z,6.10
2022-10-06T06:48:04.283Z,6.00
2022-10-06T06:50:33.445Z,5.73
2022-10-06T06:53:02.550Z,5.17
2022-10-06T06:55:34.250Z,4.47
2022-10-06T06:58:02.402Z,4.07
2022-10-06T07:00:35.226Z,4.10
2022-10-06T07:03:04.465Z,4.07
2022-10-06T07:05:33.518Z,4.20
2022-10-06T07:08:01.475Z,4.50
2022-10-06T07:10:35.357Z,3.80
2022-10-06T07:13:06.853Z,4.30
2022-10-06T07:15:52.196Z,4.20
2022-10-06T07:18:37.691Z,3.90
2022-10-06T07:21:28.115Z,4.53
2022-10-06T07:24:13.469Z,4.17
2022-10-06T07:26:41.619Z,5.47
2022-10-06T07:29:11.242Z,4.97
2022-10-06T07:31:43.030Z,4.80
2022-10-06T07:34:11.032Z,4.83
2022-10-06T07:36:39.620Z,4.83
2022-10-06T07:39:10.487Z,5.47
2022-10-06T07:41:39.114Z,4.70
2022-10-06T07:44:08.150Z,5.00
2022-10-06T07:46:39.171Z,4.57
2022-10-06T07:49:11.855Z,4.87
2022-10-06T07:51:41.284Z,4.63
2022-10-06T07:54:09.361Z,4.83
2022-10-06T07:56:52.963Z,4.47
2022-10-06T07:59:21.267Z,4.47
2022-10-06T08:01:52.524Z,4.40
2022-10-06T08:04:20.551Z,3.63
2022-10-06T08:06:49.519Z,3.20
2022-10-06T08:09:17.558Z,3.03
2022-10-06T08:11:47.335Z,3.20
2022-10-06T08:14:15.282Z,2.60
2022-10-06T08:16:43.427Z,2.60
2022-10-06T08:19:14.578Z,2.30
2022-10-06T08:21:42.542Z,2.57
2022-10-06T08:24:11.019Z,1.97
2022-10-06T08:26:39.078Z,2.20
2022-10-06T08:29:07.083Z,1.10
2022-10-06T08:31:35.111Z,1.60
2022-10-06T08:34:03.152Z,1.77
2022-10-06T08:36:32.898Z,1.87
2022-10-06T08:39:01.429Z,1.63
2022-10-06T08:41:40.286Z,2.00
2022-10-06T08:44:22.046Z,30.07
2022-10-06T08:46:55.378Z,8.30
2022-10-06T08:49:27.005Z,2.07
2022-10-06T08:52:06.221Z,1.03
2022-10-06T08:54:41.174Z,1.20
2022-10-06T08:57:18.778Z,1.20
2022-10-06T08:59:53.875Z,1.00
2022-10-06T09:02:30.287Z,1.27
2022-10-06T09:05:01.291Z,1.13
2022-10-06T09:07:39.955Z,1.43
2022-10-06T09:10:24.435Z,1.60
2022-10-06T09:12:55.983Z,1.30
2022-10-06T09:15:34.051Z,0.80
2022-10-06T09:18:10.736Z,1.10
2022-10-06T09:20:43.477Z,1.43
2022-10-06T09:23:37.998Z,1.43
2022-10-06T09:26:07.260Z,1.23
2022-10-06T09:28:35.223Z,0.80
2022-10-06T09:31:04.025Z,1.00
2022-10-06T09:33:39.919Z,1.40
2022-10-06T09:36:10.273Z,1.47
2022-10-06T09:38:54.337Z,1.23
2022-10-06T09:41:31.771Z,1.27
2022-10-06T09:44:01.513Z,0.90
2022-10-06T09:46:32.772Z,1.10
2022-10-06T09:49:18.510Z,1.07
2022-10-06T09:52:01.079Z,1.40
2022-10-06T09:54:31.274Z,1.10
2022-10-06T09:57:23.222Z,1.00
2022-10-06T10:00:00.176Z,1.37
2022-10-06T10:02:36.998Z,0.93
2022-10-06T10:05:07.762Z,1.07
2022-10-06T10:07:37.496Z,1.17
2022-10-06T10:10:20.215Z,0.90
2022-10-06T10:12:52.101Z,0.90
2022-10-06T10:15:31.235Z,0.80
2022-10-06T10:18:03.073Z,0.87
2022-10-06T10:20:37.614Z,0.90
2022-10-06T10:23:19.863Z,1.43
2022-10-06T10:26:04.930Z,1.00
2022-10-06T10:29:12.331Z,1.13
2022-10-06T10:31:50.882Z,1.10
2022-10-06T10:34:38.307Z,1.37
2022-10-06T10:37:13.438Z,1.27
2022-10-06T10:39:47.536Z,1.40
2022-10-06T10:42:22.018Z,0.90
2022-10-06T10:44:56.058Z,1.13
2022-10-06T10:47:27.902Z,1.10
2022-10-06T10:50:04.203Z,0.70
2022-10-06T10:52:42.455Z,0.97
2022-10-06T10:55:23.527Z,0.97
2022-10-06T10:57:54.993Z,1.23
2022-10-06T11:00:27.117Z,0.90
2022-10-06T11:02:58.400Z,0.80
2022-10-06T11:05:38.541Z,0.97
2022-10-06T11:08:15.450Z,1.17
2022-10-06T11:10:49.244Z,1.37
2022-10-06T11:13:30.641Z,0.97
2022-10-06T11:16:17.867Z,1.00
2022-10-06T11:19:09.908Z,1.93
2022-10-06T11:21:44.554Z,0.80
2022-10-06T11:24:20.849Z,1.20
2022-10-06T11:27:23.008Z,1.30
2022-10-06T11:30:03.295Z,1.10
2022-10-06T11:32:43.914Z,1.10
2022-10-06T11:35:19.355Z,0.83
2022-10-06T11:37:54.428Z,0.90
2022-10-06T11:40:32.905Z,0.90
2022-10-06T11:43:07.576Z,0.80
2022-10-06T11:45:55.319Z,0.90
2022-10-06T11:48:31.135Z,1.00
2022-10-06T11:51:29.898Z,1.47
2022-10-06T11:54:03.283Z,0.80
2022-10-06T11:56:41.224Z,1.23
2022-10-06T11:59:28.584Z,0.80
2022-10-06T12:02:00.886Z,1.33
2022-10-06T12:04:30.437Z,1.43
2022-10-06T12:08:14.710Z,0.70
2022-10-06T12:11:16.447Z,1.50
2022-10-06T12:15:12.126Z,0.90
2022-10-06T12:17:15.357Z,1.13
2022-10-06T12:20:03.495Z,1.10
2022-10-06T12:23:23.120Z,2.03
2022-10-06T12:26:27.743Z,1.10
2022-10-06T12:29:47.168Z,1.00
2022-10-06T12:32:53.171Z,1.30
2022-10-06T12:35:44.762Z,1.03
2022-10-06T12:38:58.548Z,1.10
2022-10-06T12:42:06.603Z,1.37
2022-10-06T12:44:40.037Z,0.80
2022-10-06T12:47:24.762Z,1.20
2022-10-06T12:50:28.936Z,0.90
2022-10-06T12:53:09.413Z,1.23
2022-10-06T12:55:55.012Z,0.87
2022-10-06T12:58:40.435Z,1.20
2022-10-06T13:04:43.036Z,1.27
2022-10-06T13:07:18.966Z,0.93
2022-10-06T13:10:12.069Z,1.23
2022-10-06T13:12:52.345Z,0.90
2022-10-06T13:15:40.667Z,1.10
2022-10-06T13:18:36.776Z,0.80
2022-10-06T13:21:20.452Z,1.43
2022-10-06T13:23:56.753Z,1.00
2022-10-06T13:27:11.595Z,1.27
2022-10-06T13:30:26.760Z,1.53
2022-10-06T13:33:05.590Z,1.20
2022-10-06T13:35:43.145Z,1.20
2022-10-06T13:41:38.392Z,1.03
2022-10-06T13:44:30.063Z,1.50
2022-10-06T13:47:10.428Z,1.50
2022-10-06T13:50:03.391Z,1.50
2022-10-06T13:52:39.267Z,1.20
2022-10-06T13:55:25.456Z,1.10
2022-10-06T13:58:22.221Z,1.00
2022-10-06T14:01:26.700Z,0.90
2022-10-06T14:04:16.391Z,1.43
2022-10-06T14:06:56.624Z,1.13
2022-10-06T14:09:45.460Z,1.07
2022-10-06T14:12:20.631Z,1.03
2022-10-06T14:15:07.696Z,1.20
2022-10-06T14:18:39.560Z,1.03
2022-10-06T14:21:53.434Z,1.10
2022-10-06T14:24:56.661Z,1.10
2022-10-06T14:27:45.459Z,1.23
2022-10-06T14:30:21.403Z,1.30
2022-10-06T14:33:15.152Z,1.13
2022-10-06T14:35:52.664Z,1.17
2022-10-06T14:38:22.215Z,1.30
2022-10-06T14:41:01.808Z,1.30
2022-10-06T14:43:38.910Z,1.40
2022-10-06T14:46:14.311Z,1.17
2022-10-06T14:48:42.384Z,1.00
2022-10-06T14:51:10.799Z,1.33
2022-10-06T14:53:40.449Z,1.13
2022-10-06T14:56:10.707Z,1.70
2022-10-06T14:58:48.158Z,1.17
2022-10-06T15:02:04.438Z,1.30
2022-10-06T15:04:36.101Z,1.23
2022-10-06T15:07:24.632Z,1.13
2022-10-06T15:10:15.364Z,1.30
2022-10-06T15:13:02.404Z,1.30
2022-10-06T15:16:00.641Z,1.73
2022-10-06T15:18:34.238Z,1.47
2022-10-06T15:21:04.466Z,1.30
2022-10-06T15:23:37.009Z,1.33
2022-10-06T15:26:31.538Z,1.83
2022-10-06T15:29:13.793Z,1.20
2022-10-06T15:32:03.665Z,1.40
2022-10-06T15:34:53.798Z,1.63
2022-10-06T15:37:27.455Z,1.50
2022-10-06T15:39:58.770Z,1.30
2022-10-06T15:42:28.206Z,1.57
2022-10-06T15:44:56.182Z,1.40
2022-10-06T15:47:24.769Z,1.87
2022-10-06T15:49:52.765Z,2.13
2022-10-06T15:52:21.077Z,1.40
2022-10-06T15:54:49.899Z,1.33
2022-10-06T15:57:20.936Z,2.20
2022-10-06T15:59:51.433Z,2.17
2022-10-06T16:02:21.093Z,1.57
2022-10-06T16:05:17.837Z,1.60
2022-10-06T16:07:45.820Z,1.60
2022-10-06T16:10:14.027Z,1.77
2022-10-06T16:12:41.961Z,1.60
2022-10-06T16:15:12.043Z,1.10
2022-10-06T16:17:40.200Z,1.27
2022-10-06T16:20:09.842Z,1.73
2022-10-06T16:22:41.731Z,1.23
2022-10-06T16:25:10.433Z,1.60
2022-10-06T16:27:39.503Z,1.50
2022-10-06T16:30:09.261Z,1.40
2022-10-06T16:32:38.795Z,1.40
2022-10-06T16:35:07.974Z,1.40
2022-10-06T16:37:35.893Z,1.30
2022-10-06T16:40:07.228Z,1.90
2022-10-06T16:42:35.161Z,1.73
2022-10-06T16:45:03.068Z,1.03
2022-10-06T16:47:31.279Z,1.50
2022-10-06T16:50:00.561Z,2.03
2022-10-06T16:53:24.807Z,1.57
2022-10-06T16:56:36.927Z,1.40
2022-10-06T16:59:31.080Z,1.50
2022-10-06T17:02:12.979Z,1.33
2022-10-06T17:05:11.898Z,1.67
2022-10-06T17:08:05.166Z,2.13
2022-10-06T17:10:44.944Z,1.60
2022-10-06T17:13:51.235Z,2.13
2022-10-06T17:16:48.020Z,2.07
2022-10-06T17:19:31.746Z,2.90
2022-10-06T17:22:22.358Z,2.27
2022-10-06T17:28:06.856Z,1.73
2022-10-06T17:30:45.633Z,2.07
2022-10-06T17:33:39.153Z,2.00
2022-10-06T17:36:25.816Z,2.43
2022-10-06T17:39:05.952Z,2.70
2022-10-06T17:41:39.613Z,2.13
2022-10-06T17:44:36.634Z,2.03
2022-10-06T17:47:22.442Z,1.90
2022-10-06T17:50:13.531Z,2.37
2022-10-06T17:53:18.192Z,1.70
2022-10-06T17:56:21.848Z,2.00
2022-10-06T17:59:26.278Z,1.60
2022-10-06T18:02:20.101Z,1.20
2022-10-06T18:05:04.351Z,2.20
2022-10-06T18:08:03.796Z,3.77
2022-10-06T18:10:59.696Z,3.40
2022-10-06T18:16:42.022Z,3.47
2022-10-06T18:19:33.312Z,2.50
2022-10-06T18:22:17.885Z,3.30
2022-10-06T18:28:52.396Z,4.00
2022-10-06T18:34:12.022Z,3.57
2022-10-06T18:39:00.477Z,5.30
2022-10-06T18:48:30.115Z,9.70
2022-10-06T18:54:06.410Z,4.50
2022-10-06T18:56:37.541Z,3.67
2022-10-06T18:59:08.881Z,3.60
2022-10-06T19:01:41.425Z,4.70
2022-10-06T19:04:14.861Z,5.20
2022-10-06T19:06:56.486Z,5.40
2022-10-06T19:09:26.327Z,5.40
2022-10-06T19:11:56.861Z,6.53
2022-10-06T19:14:26.415Z,4.70
2022-10-06T19:16:56.419Z,3.10
2022-10-06T19:19:27.157Z,3.00
2022-10-06T19:21:59.447Z,3.63
2022-10-06T19:24:30.075Z,3.40
2022-10-06T19:26:59.343Z,3.90
2022-10-06T19:29:27.954Z,3.13
2022-10-06T19:32:11.530Z,3.67
2022-10-06T19:34:40.779Z,2.57
2022-10-06T19:37:09.297Z,3.33
2022-10-06T19:39:43.018Z,2.80
2022-10-06T19:42:29.398Z,2.67
2022-10-06T19:44:58.065Z,3.27
2022-10-06T19:47:27.012Z,3.10
2022-10-06T19:50:02.152Z,3.30
2022-10-06T19:52:32.426Z,3.33
2022-10-06T19:55:00.976Z,6.23
2022-10-06T19:57:29.768Z,5.30
2022-10-06T19:59:57.711Z,3.63
2022-10-06T20:02:25.614Z,4.87
2022-10-06T20:04:53.500Z,6.30
2022-10-06T20:07:25.528Z,5.50
2022-10-06T20:09:53.471Z,4.70
2022-10-06T20:12:24.876Z,5.13
2022-10-06T20:14:53.834Z,5.10
2022-10-06T20:17:23.128Z,4.80
2022-10-06T20:19:56.734Z,5.03
2022-10-06T20:22:27.225Z,5.10
2022-10-06T20:24:55.328Z,5.77
2022-10-06T20:27:23.260Z,4.90
2022-10-06T20:29:51.228Z,4.37
2022-10-06T20:32:19.127Z,4.63
2022-10-06T20:34:47.037Z,3.60
2022-10-06T20:37:15.055Z,3.67
2022-10-06T20:40:01.524Z,3.87
2022-10-06T20:42:31.441Z,3.77
2022-10-06T20:44:59.494Z,3.50
2022-10-06T20:47:27.861Z,3.40
2022-10-06T20:49:55.722Z,4.10
2022-10-06T20:52:24.219Z,4.63
2022-10-06T20:54:53.527Z,4.53
2022-10-06T20:57:21.557Z,3.83
2022-10-06T20:59:49.541Z,3.37
2022-10-06T21:02:17.855Z,3.77
2022-10-06T21:04:45.769Z,4.10
2022-10-06T21:07:14.170Z,3.20
2022-10-06T21:09:42.071Z,3.50
2022-10-06T21:12:11.424Z,3.17
2022-10-06T21:14:42.234Z,2.70
2022-10-06T21:17:10.151Z,2.50
2022-10-06T21:19:38.173Z,3.30
2022-10-06T21:22:06.479Z,3.03
2022-10-06T21:24:34.381Z,4.73
2022-10-06T21:27:03.106Z,5.23
2022-10-06T21:29:32.395Z,5.00
2022-10-06T21:32:00.429Z,4.77
2022-10-06T21:34:28.325Z,4.07
2022-10-06T21:36:56.602Z,3.00
2022-10-06T21:39:24.453Z,2.90
2022-10-06T21:41:52.342Z,4.10
2022-10-06T21:44:20.259Z,3.53
2022-10-06T21:46:51.120Z,3.23
2022-10-06T21:49:21.364Z,2.70
2022-10-06T21:51:51.012Z,2.60
2022-10-06T21:54:20.038Z,3.57
2022-10-06T21:56:47.929Z,3.30
2022-10-06T21:59:15.926Z,2.93
2022-10-06T22:01:45.725Z,3.20
2022-10-06T22:04:16.234Z,5.37
2022-10-06T22:06:49.807Z,8.03
2022-10-06T22:09:22.529Z,5.90
2022-10-06T22:11:50.623Z,10.33
2022-10-06T22:14:20.250Z,16.93
2022-10-06T22:16:48.482Z,20.80
2022-10-06T22:19:18.389Z,14.93
2022-10-06T22:21:48.523Z,9.83
2022-10-06T22:24:18.650Z,6.27
2022-10-06T22:26:47.382Z,10.87
2022-10-06T22:29:17.926Z,5.40
2022-10-06T22:31:47.528Z,3.90
2022-10-06T22:34:18.675Z,3.57
2022-10-06T22:36:46.684Z,3.87
2022-10-06T22:39:14.584Z,3.47
2022-10-06T22:41:42.619Z,15.27
2022-10-06T22:44:10.620Z,8.80
2022-10-06T22:46:39.115Z,6.30
2022-10-06T22:49:07.422Z,7.43
2022-10-06T22:51:36.897Z,6.20
2022-10-06T22:54:05.221Z,6.87
2022-10-06T22:56:34.789Z,8.37
2022-10-06T22:59:02.769Z,8.07
2022-10-06T23:01:31.507Z,7.50
2022-10-06T23:03:59.766Z,4.30
2022-10-06T23:06:29.648Z,6.00
2022-10-06T23:08:59.193Z,4.20
2022-10-06T23:11:27.069Z,2.77
2022-10-06T23:13:55.026Z,2.23
2022-10-06T23:16:23.404Z,2.80
2022-10-06T23:18:51.850Z,2.90
2022-10-06T23:21:22.535Z,3.10
2022-10-06T23:23:52.293Z,3.20
2022-10-06T23:26:23.229Z,3.33
2022-10-06T23:28:56.006Z,2.70
2022-10-06T23:31:24.612Z,3.77
2022-10-06T23:33:53.005Z,3.40
2022-10-06T23:36:21.959Z,2.97
2022-10-06T23:38:50.104Z,2.80
2022-10-06T23:41:18.008Z,2.63
2022-10-06T23:43:47.566Z,3.33
2022-10-06T23:46:15.880Z,2.57
2022-10-06T23:48:44.131Z,2.70
2022-10-06T23:51:14.181Z,3.07
2022-10-06T23:53:42.992Z,2.87
2022-10-06T23:56:11.478Z,2.57
2022-10-06T23:58:41.655Z,2.97
